KBTM/BTM METAR and TAF weather

Enter ICAO airport designator
Station Type Date Time Source
KBTM METAR 2021/07/30 05:53 UTC NOAA

KBTM 300553Z AUTO 22004KT 10SM CLR 16/08 A3030 RMK AO2 SLP205 T01560083 10256 20156 51010


Station Type Date Time Source
KBTM Decoded METAR 2021/07/30 05:53 UTC NOAA

BERT MOONEY AIRPORT, MT, United States (KBTM) 45-58N 112-30W 1688M
Jul 30, 2021 - 01:53 AM EDT / 2021.07.30 0553 UTC
Wind: from the SW (220 degrees) at 5 MPH (4 KT):0
Visibility: 10 mile(s):0
Sky conditions: clear
Temperature: 60.1 F (15.6 C)
Dew Point: 46.9 F (8.3 C)
Relative Humidity: 61%
Pressure (altimeter): 30.3 in. Hg (1026 hPa)
Pressure tendency: 0.03 inches (1.0 hPa) higher than three hours ago
ob: KBTM 300553Z AUTO 22004KT 10SM CLR 16/08 A3030 RMK AO2 SLP205 T01560083 10256 20156 51010
cycle: 6

Station Type Date Time Source
KBTM TAF 2021/07/30 06:22 UTC NOAA

TAF KBTM 300520Z 3006/3106 VRB04KT P6SM SKC
FM302100 31009G16KT P6SM VCSH SCT100
FM310100 VRB06KT P6SM SKC

Example: see airport list